Navigator Of The Seas — C6FU4 — position and weather

sailwx.info

Track history (hours):
 
Tides and Currents Weather Stations Pressure Air Temp Water Temp Dewpoint Dewpoint Depression Visibility Wind Speed Wind Dir Waves Ship Positions

Navigator Of The Seas

Operator: Royal Caribbean Cruises Ltd

Last reported at 2018-Aug-16 07:29 UTC. Time now 2018-Aug-16 20:18 UTC.
Position N 38°18' W 000°27'.

Type: Passenger vessel. MMSI: 311478000.

Date/timePositionNaut miles runAvg speedWind from/ knotsBaromVisibWave heightAir tempDewpointWater temp
2018-Aug-16 07:29N 38°18' W 000°27'817.2
2018-Aug-16 07:00N 38°13' W 000°19'917.9
2018-Aug-16 06:30N 38°04' W 000°20'918.1
2018-Aug-16 06:00N 37°55' W 000°23'918.3
2018-Aug-16 05:30N 37°46' W 000°24'917.7
2018-Aug-16 05:00N 37°38' W 000°27'917.7
2018-Aug-16 04:30N 37°30' W 000°34'917.8
2018-Aug-16 04:00N 37°24' W 000°42'918.0
2018-Aug-16 03:30N 37°18' W 000°51'917.9
2018-Aug-16 03:00N 37°12' W 000°59'12220.4
2018-Aug-15 21:00N 36°12' W 003°12'105 7.7 090 / 101017.1 2.2 25.022.223.0
2018-Aug-15 07:14N 36°07' W 005°22'2 8.4
2018-Aug-15 07:00N 36°05' W 005°22'612.2
2018-Aug-15 06:30N 35°59' W 005°24'916.1
2018-Aug-15 05:59N 35°56' W 005°34'916.5
2018-Aug-15 05:25N 35°55' W 005°45'819.5
2018-Aug-15 05:00N 35°55' W 005°55'1119.6
2018-Aug-15 04:27N 35°55' W 006°08'1320.8
2018-Aug-15 03:50N 35°57' W 006°24'2220.3
2018-Aug-15 02:46N 36°03' W 006°50'520.2
2018-Aug-15 02:30N 36°04' W 006°56'1020.4
2018-Aug-15 02:00N 36°07' W 007°08'1020.2
2018-Aug-15 01:30N 36°09' W 007°20'1020.1
2018-Aug-15 01:00N 36°12' W 007°32'1020.4
2018-Aug-15 00:30N 36°14' W 007°45'1020.6
2018-Aug-15 00:00N 36°16' W 007°57'1020.4
2018-Aug-14 23:30N 36°19' W 008°09'1020.1
2018-Aug-14 23:00N 36°21' W 008°21'1019.9
2018-Aug-14 22:30N 36°24' W 008°33'1222.8
2018-Aug-14 22:00N 36°24' W 008°48'3253.7 330 / 251019.110.8 19.015.918.0
2018-Aug-14 21:59N 36°27' W 008°46'1020.6
2018-Aug-14 21:31N 36°29' W 008°58'1020.7
2018-Aug-14 21:00N 36°32' W 009°10'1020.5
2018-Aug-14 20:30N 36°36' W 009°22'1121.4
2018-Aug-14 20:00N 36°44' W 009°31'1120.8
2018-Aug-14 19:30N 36°54' W 009°36'1021.0
2018-Aug-14 19:00N 37°04' W 009°40'1020.5
2018-Aug-14 18:30N 37°14' W 009°43'1220.5
2018-Aug-14 17:53N 37°26' W 009°46'820.5
2018-Aug-14 17:30N 37°34' W 009°48'1020.5
2018-Aug-14 17:00N 37°44' W 009°51'1020.3
2018-Aug-14 16:30N 37°54' W 009°53'1020.3
2018-Aug-14 16:00N 38°04' W 009°56'1020.3
2018-Aug-14 15:30N 38°13' W 009°59'1020.6
2018-Aug-14 15:00N 38°24' W 010°02'1020.7
2018-Aug-14 14:30N 38°34' W 010°04'1020.7
2018-Aug-14 14:00N 38°44' W 010°06'1020.3
2018-Aug-14 13:30N 38°54' W 010°06'1020.3
2018-Aug-14 13:00N 39°04' W 010°07'1020.4
2018-Aug-14 12:30N 39°14' W 010°07'1020.3
2018-Aug-14 12:00N 39°25' W 010°07'1320.6
2018-Aug-14 11:21N 39°38' W 010°08'1620.5
2018-Aug-14 10:33N 39°55' W 010°08'22819.8
2018-Aug-13 23:00N 43°42' W 009°42'34220.7 010 / 151022.110.8 18.014.819.0
2018-Aug-13 06:28N 48°45' W 005°55'918.6
2018-Aug-13 05:58N 48°53' W 005°48'818.2
2018-Aug-13 05:31N 48°58' W 005°37'918.2
2018-Aug-13 05:01N 49°02' W 005°25'918.2
2018-Aug-13 04:30N 49°06' W 005°12'918.3
2018-Aug-13 04:00N 49°11' W 005°00'5320.0
2018-Aug-13 01:21N 49°38' W 003°51'921.4
2018-Aug-13 00:55N 49°43' W 003°38'921.3
2018-Aug-13 00:30N 49°48' W 003°27'1120.8
2018-Aug-13 00:00N 49°53' W 003°13'1020.0
2018-Aug-12 23:30N 49°58' W 002°59'1019.5
2018-Aug-12 23:00N 50°01' W 002°45'9631.2
2018-Aug-12 23:00N 49°54' W 002°54'1836.3 270 / 121008.1 5.4 18.014.818.0
2018-Aug-12 22:30N 50°04' W 002°32'917.3
2018-Aug-12 22:00N 50°07' W 002°19'816.4
2018-Aug-12 21:30N 50°11' W 002°08'3315.6
2018-Aug-12 19:23N 50°26' W 001°22'614.8
2018-Aug-12 19:00N 50°29' W 001°14'815.0
2018-Aug-12 18:31N 50°33' W 001°04'815.0
2018-Aug-12 18:00N 50°39' W 000°57'4 8.0
2018-Aug-12 17:30N 50°43' W 000°58'714.8
2018-Aug-12 17:01N 50°46' W 001°09'713.1
2018-Aug-12 16:30N 50°48' W 001°18'4 9.0
2018-Aug-12 16:00N 50°52' W 001°22'3 6.0
2018-Aug-12 15:30N 50°54' W 001°25'0 0.0
2018-Aug-12 15:00N 50°54' W 001°25'0 0.0
2018-Aug-12 14:30N 50°54' W 001°25'0 0.0
2018-Aug-12 14:00N 50°54' W 001°25'0 0.0
2018-Aug-12 13:30N 50°54' W 001°25'0 0.0
2018-Aug-12 13:00N 50°54' W 001°25'0 0.0
2018-Aug-12 12:30N 50°54' W 001°25'0 0.0
2018-Aug-12 12:00N 50°54' W 001°25'0 0.0
2018-Aug-12 11:30N 50°54' W 001°25'0 0.0
2018-Aug-12 11:00N 50°54' W 001°25'0 0.0
2018-Aug-12 10:30N 50°54' W 001°25'0 0.0
2018-Aug-12 10:00N 50°54' W 001°25'0 0.0
2018-Aug-12 09:30N 50°54' W 001°25'0 0.0
2018-Aug-12 09:00N 50°54' W 001°25'0 0.0
2018-Aug-12 08:30N 50°54' W 001°25'0 0.0
2018-Aug-12 08:00N 50°54' W 001°25'0 0.0
2018-Aug-12 07:30N 50°54' W 001°25'0 0.0
2018-Aug-12 07:00N 50°54' W 001°25'0 0.0
2018-Aug-12 06:30N 50°54' W 001°25'0 0.0
2018-Aug-12 06:00N 50°54' W 001°25'0 0.0
2018-Aug-12 05:30N 50°54' W 001°25'0 0.0
2018-Aug-12 05:00N 50°54' W 001°25'0 0.0
2018-Aug-12 04:30N 50°54' W 001°25'0 0.1
2018-Aug-12 04:00N 50°54' W 001°25'1 2.6
2018-Aug-12 03:30N 50°53' W 001°24'5 9.6
2018-Aug-12 03:00N 50°49' W 001°18'4 8.0
2018-Aug-12 02:31N 50°46' W 001°15'816.0
2018-Aug-12 02:00N 50°44' W 001°03'510.0
2018-Aug-12 01:31N 50°39' W 000°59'612.7
2018-Aug-12 01:00N 50°33' W 001°02'713.2
2018-Aug-12 00:30N 50°30' W 001°11'612.2
2018-Aug-12 00:00N 50°27' W 001°20'612.9
2018-Aug-11 23:30N 50°25' W 001°29'713.1
2018-Aug-11 23:00N 50°21' W 001°38'1013.4
2018-Aug-11 22:15N 50°12' W 001°45'713.9
2018-Aug-11 21:44N 50°06' W 001°52'614.8
2018-Aug-11 21:21N 50°02' W 001°57'1216.8
2018-Aug-11 20:37N 49°57' W 002°15'218.0
2018-Aug-11 20:29N 49°56' W 002°18'917.6
2018-Aug-11 20:00N 49°54' W 002°31'917.3
2018-Aug-11 19:30N 49°52' W 002°44'917.0
2018-Aug-11 19:00N 49°49' W 002°56'917.0
2018-Aug-11 18:30N 49°45' W 003°08'816.9
2018-Aug-11 18:00N 49°40' W 003°19'917.0
2018-Aug-11 17:27N 49°36' W 003°32'917.1
2018-Aug-11 16:57N 49°31' W 003°43'817.2
2018-Aug-11 16:27N 49°27' W 003°55'1417.1
2018-Aug-11 15:39N 49°20' W 004°13'616.8
2018-Aug-11 15:18N 49°17' W 004°20'516.7
2018-Aug-11 15:00N 49°15' W 004°27'1017.2
2018-Aug-11 14:24N 49°10' W 004°41'818.1
2018-Aug-11 13:59N 49°06' W 004°51'1017.7
2018-Aug-11 13:26N 49°01' W 005°04'817.9
2018-Aug-11 13:00N 48°57' W 005°14'917.8
2018-Aug-11 12:30N 48°53' W 005°26'917.3
2018-Aug-11 12:01N 48°48' W 005°37'24817.7
2018-Aug-10 22:00N 45°06' W 008°18'32116.1 120 / 51026.110.8 18.014.820.0
2018-Aug-10 02:06N 39°52' W 009°52'2616.1
2018-Aug-10 00:28N 39°26' W 009°53'716.0
2018-Aug-10 00:00N 39°19' W 009°52'816.5
2018-Aug-09 23:30N 39°10' W 009°52'816.1
2018-Aug-09 23:00N 39°02' W 009°53'816.0
2018-Aug-09 22:30N 38°54' W 009°53'816.2
2018-Aug-09 22:00N 38°46' W 009°53'4241.7
2018-Aug-09 22:00N 38°48' W 009°48'1019.8 010 / 301013.110.8 18.014.818.0
2018-Aug-09 21:30N 38°39' W 009°50'816.2
2018-Aug-09 21:00N 38°35' W 009°41'917.6
2018-Aug-09 20:30N 38°35' W 009°30'917.6
2018-Aug-09 20:00N 38°39' W 009°20'612.9
2018-Aug-09 19:30N 38°41' W 009°12'4 7.6
2018-Aug-09 18:59N 38°43' W 009°08'0 0.0
2018-Aug-09 18:29N 38°43' W 009°08'0 0.0
2018-Aug-09 17:59N 38°43' W 009°08'0 0.0
2018-Aug-09 17:29N 38°43' W 009°08'0 0.0
2018-Aug-09 16:59N 38°43' W 009°08'0 0.0
2018-Aug-09 16:29N 38°43' W 009°08'0 0.0
2018-Aug-09 16:00N 38°43' W 009°08'0 0.0
2018-Aug-09 15:30N 38°43' W 009°08'0 0.0
2018-Aug-09 15:00N 38°43' W 009°08'0 0.0
2018-Aug-09 14:30N 38°43' W 009°08'0 0.0
2018-Aug-09 14:00N 38°43' W 009°08'0 0.0
2018-Aug-09 13:30N 38°43' W 009°08'0 0.0
2018-Aug-09 13:00N 38°43' W 009°08'0 0.0
2018-Aug-09 12:30N 38°43' W 009°08'0 0.0
2018-Aug-09 12:00N 38°43' W 009°08'0 0.0
2018-Aug-09 11:30N 38°43' W 009°08'0 0.0
2018-Aug-09 11:00N 38°43' W 009°08'0 0.0
2018-Aug-09 10:30N 38°43' W 009°08'0 0.0
2018-Aug-09 10:00N 38°43' W 009°08'0 0.0
2018-Aug-09 09:30N 38°43' W 009°08'0 0.0
2018-Aug-09 09:00N 38°43' W 009°08'0 0.5
2018-Aug-09 08:30N 38°42' W 009°08'5 9.4
2018-Aug-09 08:00N 38°41' W 009°13'612.9
2018-Aug-09 07:30N 38°38' W 009°21'815.1
2018-Aug-09 07:01N 38°32' W 009°25'816.9
2018-Aug-09 06:31N 38°23' W 009°25'917.3
2018-Aug-09 06:00N 38°14' W 009°25'917.4
2018-Aug-09 05:31N 38°06' W 009°24'816.8
2018-Aug-09 05:01N 37°57' W 009°24'816.5
2018-Aug-09 04:31N 37°49' W 009°23'816.7
2018-Aug-09 04:01N 37°41' W 009°23'816.9
2018-Aug-09 03:31N 37°32' W 009°23'917.5
2018-Aug-09 03:00N 37°23' W 009°22'4415.8
2018-Aug-09 00:11N 36°42' W 009°00'717.8
2018-Aug-08 23:48N 36°42' W 008°52'517.8
2018-Aug-08 23:30N 36°41' W 008°45'917.9
2018-Aug-08 23:00N 36°40' W 008°34'918.0
2018-Aug-08 22:30N 36°39' W 008°23'1427.3
2018-Aug-08 22:00N 36°36' W 008°06'5771.3 330 / 251017.110.8 20.016.920.0
2018-Aug-08 21:59N 36°38' W 008°12'817.5
2018-Aug-08 21:30N 36°39' W 008°01'5316.9
2018-Aug-08 18:21N 36°35' W 006°55'616.6
2018-Aug-08 17:58N 36°34' W 006°47'816.7
2018-Aug-08 17:30N 36°33' W 006°38'816.9
2018-Aug-08 17:00N 36°32' W 006°27'713.7
2018-Aug-08 16:30N 36°34' W 006°19'2 4.0
2018-Aug-08 16:00N 36°32' W 006°17'0 0.8
2018-Aug-08 15:29N 36°32' W 006°17'0 0.0
2018-Aug-08 14:59N 36°32' W 006°17'0 0.0
2018-Aug-08 14:29N 36°32' W 006°17'0 0.0
2018-Aug-08 13:56N 36°32' W 006°17'0 0.0
2018-Aug-08 13:29N 36°32' W 006°17'0 0.0
2018-Aug-08 12:59N 36°32' W 006°17'0 0.0
2018-Aug-08 12:29N 36°32' W 006°17'0 0.0
2018-Aug-08 11:39N 36°32' W 006°17'0 0.0
2018-Aug-08 11:27N 36°32' W 006°17'0 0.0
2018-Aug-08 06:18N 36°32' W 006°17'0 0.0
2018-Aug-08 06:00N 36°32' W 006°17'0 0.0
2018-Aug-08 05:06N 36°32' W 006°17'0 0.0
2018-Aug-08 05:00N 36°32' W 006°17'1 1.1
2018-Aug-08 04:19N 36°32' W 006°17'2 7.3
2018-Aug-08 04:00N 36°34' W 006°19'912.5
2018-Aug-08 03:15N 36°26' W 006°25'415.1
2018-Aug-08 03:00N 36°22' W 006°24'915.3
2018-Aug-08 02:26N 36°14' W 006°20'2214.2
2018-Aug-08 00:55N 36°01' W 005°59'614.6
2018-Aug-08 00:30N 35°59' W 005°52'813.5
2018-Aug-07 23:53N 35°58' W 005°42'513.4
2018-Aug-07 23:30N 35°58' W 005°35'713.9
2018-Aug-07 23:00N 35°60' W 005°27'713.6
2018-Aug-07 22:30N 36°01' W 005°19'713.5
2018-Aug-07 22:00N 36°03' W 005°11'713.0
2018-Aug-07 21:29N 36°04' W 005°02'612.7
2018-Aug-07 21:01N 36°08' W 004°57'713.6
2018-Aug-07 20:30N 36°14' W 004°52'172 8.9
2018-Aug-07 01:12N 36°57' W 001°24'518.2
2018-Aug-07 00:57N 37°00' W 001°20'917.9
2018-Aug-07 00:26N 37°06' W 001°11'817.9
2018-Aug-06 23:58N 37°12' W 001°04'918.0
2018-Aug-06 23:27N 37°18' W 000°55'818.3
2018-Aug-06 23:00N 37°24' W 000°48'918.4
2018-Aug-06 22:30N 37°30' W 000°39'918.2
2018-Aug-06 22:00N 37°37' W 000°32'918.1
2018-Aug-06 21:30N 37°44' W 000°25'917.9
2018-Aug-06 21:00N 37°51' W 000°18'917.9
2018-Aug-06 20:30N 37°59' W 000°12'917.8
2018-Aug-06 20:00N 38°07' W 000°06'917.9
2018-Aug-06 19:30N 38°14' W 000°00'917.9
2018-Aug-06 19:00N 38°22' E 000°06'917.7
2018-Aug-06 18:31N 38°29' E 000°12'917.5
2018-Aug-06 18:00N 38°37' E 000°18'817.0
2018-Aug-06 17:30N 38°44' E 000°23'816.4
2018-Aug-06 17:00N 38°52' E 000°19'2417.3
2018-Aug-06 15:37N 39°11' W 000°00'217.3
2018-Aug-06 15:30N 39°12' W 000°02'817.4
2018-Aug-06 15:00N 39°19' W 000°09'816.4
2018-Aug-06 14:30N 39°25' W 000°16'3 5.8
2018-Aug-06 14:01N 39°28' W 000°18'0 0.0
2018-Aug-06 13:29N 39°28' W 000°18'0 0.0
2018-Aug-06 12:59N 39°28' W 000°18'0 0.0
2018-Aug-06 12:29N 39°28' W 000°18'0 0.0
2018-Aug-06 11:59N 39°28' W 000°18'0 0.0
2018-Aug-06 11:29N 39°28' W 000°18'0 0.0
2018-Aug-06 10:59N 39°28' W 000°18'0 0.0
2018-Aug-06 10:29N 39°28' W 000°18'0 0.0
2018-Aug-06 09:59N 39°28' W 000°18'0 0.0
2018-Aug-06 09:29N 39°28' W 000°18'0 0.0
2018-Aug-06 08:59N 39°28' W 000°18'0 0.0
2018-Aug-06 08:31N 39°28' W 000°18'0 0.0
2018-Aug-06 07:59N 39°28' W 000°18'0 0.0
2018-Aug-06 07:29N 39°28' W 000°18'  
Track history (hours):
 
Tides and Currents Weather Stations Pressure Air Temp Water Temp Dewpoint Dewpoint Depression Visibility Wind Speed Wind Dir Waves Ship Positions

Navigator Of The Seas

Operator: Royal Caribbean Cruises Ltd

Last reported at 2018-Aug-16 07:29 UTC. Time now 2018-Aug-16 20:18 UTC.
Position N 38°18' W 000°27'.

Type: Passenger vessel. MMSI: 311478000.

Date/timePositionNaut miles runAvg speedWind from/ knotsBaromVisibWave heightAir tempDewpointWater temp
2018-Aug-16 07:29N 38°18' W 000°27'817.2
2018-Aug-16 07:00N 38°13' W 000°19'917.9
2018-Aug-16 06:30N 38°04' W 000°20'918.1
2018-Aug-16 06:00N 37°55' W 000°23'918.3
2018-Aug-16 05:30N 37°46' W 000°24'917.7
2018-Aug-16 05:00N 37°38' W 000°27'917.7
2018-Aug-16 04:30N 37°30' W 000°34'917.8
2018-Aug-16 04:00N 37°24' W 000°42'918.0
2018-Aug-16 03:30N 37°18' W 000°51'917.9
2018-Aug-16 03:00N 37°12' W 000°59'12220.4
2018-Aug-15 21:00N 36°12' W 003°12'105 7.7 090 / 101017.1 2.2 25.022.223.0
2018-Aug-15 07:14N 36°07' W 005°22'2 8.4
2018-Aug-15 07:00N 36°05' W 005°22'612.2
2018-Aug-15 06:30N 35°59' W 005°24'916.1
2018-Aug-15 05:59N 35°56' W 005°34'916.5
2018-Aug-15 05:25N 35°55' W 005°45'819.5
2018-Aug-15 05:00N 35°55' W 005°55'1119.6
2018-Aug-15 04:27N 35°55' W 006°08'1320.8
2018-Aug-15 03:50N 35°57' W 006°24'2220.3
2018-Aug-15 02:46N 36°03' W 006°50'520.2
2018-Aug-15 02:30N 36°04' W 006°56'1020.4
2018-Aug-15 02:00N 36°07' W 007°08'1020.2
2018-Aug-15 01:30N 36°09' W 007°20'1020.1
2018-Aug-15 01:00N 36°12' W 007°32'1020.4
2018-Aug-15 00:30N 36°14' W 007°45'1020.6
2018-Aug-15 00:00N 36°16' W 007°57'1020.4
2018-Aug-14 23:30N 36°19' W 008°09'1020.1
2018-Aug-14 23:00N 36°21' W 008°21'1019.9
2018-Aug-14 22:30N 36°24' W 008°33'1222.8
2018-Aug-14 22:00N 36°24' W 008°48'3253.7 330 / 251019.110.8 19.015.918.0
2018-Aug-14 21:59N 36°27' W 008°46'1020.6
2018-Aug-14 21:31N 36°29' W 008°58'1020.7
2018-Aug-14 21:00N 36°32' W 009°10'1020.5
2018-Aug-14 20:30N 36°36' W 009°22'1121.4
2018-Aug-14 20:00N 36°44' W 009°31'1120.8
2018-Aug-14 19:30N 36°54' W 009°36'1021.0
2018-Aug-14 19:00N 37°04' W 009°40'1020.5
2018-Aug-14 18:30N 37°14' W 009°43'1220.5
2018-Aug-14 17:53N 37°26' W 009°46'820.5
2018-Aug-14 17:30N 37°34' W 009°48'1020.5
2018-Aug-14 17:00N 37°44' W 009°51'1020.3
2018-Aug-14 16:30N 37°54' W 009°53'1020.3
2018-Aug-14 16:00N 38°04' W 009°56'1020.3
2018-Aug-14 15:30N 38°13' W 009°59'1020.6
2018-Aug-14 15:00N 38°24' W 010°02'1020.7
2018-Aug-14 14:30N 38°34' W 010°04'1020.7
2018-Aug-14 14:00N 38°44' W 010°06'1020.3
2018-Aug-14 13:30N 38°54' W 010°06'1020.3
2018-Aug-14 13:00N 39°04' W 010°07'1020.4
2018-Aug-14 12:30N 39°14' W 010°07'1020.3
2018-Aug-14 12:00N 39°25' W 010°07'1320.6
2018-Aug-14 11:21N 39°38' W 010°08'1620.5
2018-Aug-14 10:33N 39°55' W 010°08'22819.8
2018-Aug-13 23:00N 43°42' W 009°42'34220.7 010 / 151022.110.8 18.014.819.0
2018-Aug-13 06:28N 48°45' W 005°55'918.6
2018-Aug-13 05:58N 48°53' W 005°48'818.2
2018-Aug-13 05:31N 48°58' W 005°37'918.2
2018-Aug-13 05:01N 49°02' W 005°25'918.2
2018-Aug-13 04:30N 49°06' W 005°12'918.3
2018-Aug-13 04:00N 49°11' W 005°00'5320.0
2018-Aug-13 01:21N 49°38' W 003°51'921.4
2018-Aug-13 00:55N 49°43' W 003°38'921.3
2018-Aug-13 00:30N 49°48' W 003°27'1120.8
2018-Aug-13 00:00N 49°53' W 003°13'1020.0
2018-Aug-12 23:30N 49°58' W 002°59'1019.5
2018-Aug-12 23:00N 50°01' W 002°45'9631.2
2018-Aug-12 23:00N 49°54' W 002°54'1836.3 270 / 121008.1 5.4 18.014.818.0
2018-Aug-12 22:30N 50°04' W 002°32'917.3
2018-Aug-12 22:00N 50°07' W 002°19'816.4
2018-Aug-12 21:30N 50°11' W 002°08'3315.6
2018-Aug-12 19:23N 50°26' W 001°22'614.8
2018-Aug-12 19:00N 50°29' W 001°14'815.0
2018-Aug-12 18:31N 50°33' W 001°04'815.0
2018-Aug-12 18:00N 50°39' W 000°57'4 8.0
2018-Aug-12 17:30N 50°43' W 000°58'714.8
2018-Aug-12 17:01N 50°46' W 001°09'713.1
2018-Aug-12 16:30N 50°48' W 001°18'4 9.0
2018-Aug-12 16:00N 50°52' W 001°22'3 6.0
2018-Aug-12 15:30N 50°54' W 001°25'0 0.0
2018-Aug-12 15:00N 50°54' W 001°25'0 0.0
2018-Aug-12 14:30N 50°54' W 001°25'0 0.0
2018-Aug-12 14:00N 50°54' W 001°25'0 0.0
2018-Aug-12 13:30N 50°54' W 001°25'0 0.0
2018-Aug-12 13:00N 50°54' W 001°25'0 0.0
2018-Aug-12 12:30N 50°54' W 001°25'0 0.0
2018-Aug-12 12:00N 50°54' W 001°25'0 0.0
2018-Aug-12 11:30N 50°54' W 001°25'0 0.0
2018-Aug-12 11:00N 50°54' W 001°25'0 0.0
2018-Aug-12 10:30N 50°54' W 001°25'0 0.0
2018-Aug-12 10:00N 50°54' W 001°25'0 0.0
2018-Aug-12 09:30N 50°54' W 001°25'0 0.0
2018-Aug-12 09:00N 50°54' W 001°25'0 0.0
2018-Aug-12 08:30N 50°54' W 001°25'0 0.0
2018-Aug-12 08:00N 50°54' W 001°25'0 0.0
2018-Aug-12 07:30N 50°54' W 001°25'0 0.0
2018-Aug-12 07:00N 50°54' W 001°25'0 0.0
2018-Aug-12 06:30N 50°54' W 001°25'0 0.0
2018-Aug-12 06:00N 50°54' W 001°25'0 0.0
2018-Aug-12 05:30N 50°54' W 001°25'0 0.0
2018-Aug-12 05:00N 50°54' W 001°25'0 0.0
2018-Aug-12 04:30N 50°54' W 001°25'0 0.1
2018-Aug-12 04:00N 50°54' W 001°25'1 2.6
2018-Aug-12 03:30N 50°53' W 001°24'5 9.6
2018-Aug-12 03:00N 50°49' W 001°18'4 8.0
2018-Aug-12 02:31N 50°46' W 001°15'816.0
2018-Aug-12 02:00N 50°44' W 001°03'510.0
2018-Aug-12 01:31N 50°39' W 000°59'612.7
2018-Aug-12 01:00N 50°33' W 001°02'713.2
2018-Aug-12 00:30N 50°30' W 001°11'612.2
2018-Aug-12 00:00N 50°27' W 001°20'612.9
2018-Aug-11 23:30N 50°25' W 001°29'713.1
2018-Aug-11 23:00N 50°21' W 001°38'1013.4
2018-Aug-11 22:15N 50°12' W 001°45'713.9
2018-Aug-11 21:44N 50°06' W 001°52'614.8
2018-Aug-11 21:21N 50°02' W 001°57'1216.8
2018-Aug-11 20:37N 49°57' W 002°15'218.0
2018-Aug-11 20:29N 49°56' W 002°18'917.6
2018-Aug-11 20:00N 49°54' W 002°31'917.3
2018-Aug-11 19:30N 49°52' W 002°44'917.0
2018-Aug-11 19:00N 49°49' W 002°56'917.0
2018-Aug-11 18:30N 49°45' W 003°08'816.9
2018-Aug-11 18:00N 49°40' W 003°19'917.0
2018-Aug-11 17:27N 49°36' W 003°32'917.1
2018-Aug-11 16:57N 49°31' W 003°43'817.2
2018-Aug-11 16:27N 49°27' W 003°55'1417.1
2018-Aug-11 15:39N 49°20' W 004°13'616.8
2018-Aug-11 15:18N 49°17' W 004°20'516.7
2018-Aug-11 15:00N 49°15' W 004°27'1017.2
2018-Aug-11 14:24N 49°10' W 004°41'818.1
2018-Aug-11 13:59N 49°06' W 004°51'1017.7
2018-Aug-11 13:26N 49°01' W 005°04'817.9
2018-Aug-11 13:00N 48°57' W 005°14'917.8
2018-Aug-11 12:30N 48°53' W 005°26'917.3
2018-Aug-11 12:01N 48°48' W 005°37'24817.7
2018-Aug-10 22:00N 45°06' W 008°18'32116.1 120 / 51026.110.8 18.014.820.0
2018-Aug-10 02:06N 39°52' W 009°52'2616.1
2018-Aug-10 00:28N 39°26' W 009°53'716.0
2018-Aug-10 00:00N 39°19' W 009°52'816.5
2018-Aug-09 23:30N 39°10' W 009°52'816.1
2018-Aug-09 23:00N 39°02' W 009°53'816.0
2018-Aug-09 22:30N 38°54' W 009°53'816.2
2018-Aug-09 22:00N 38°46' W 009°53'4241.7
2018-Aug-09 22:00N 38°48' W 009°48'1019.8 010 / 301013.110.8 18.014.818.0
2018-Aug-09 21:30N 38°39' W 009°50'816.2
2018-Aug-09 21:00N 38°35' W 009°41'917.6
2018-Aug-09 20:30N 38°35' W 009°30'917.6
2018-Aug-09 20:00N 38°39' W 009°20'612.9
2018-Aug-09 19:30N 38°41' W 009°12'4 7.6
2018-Aug-09 18:59N 38°43' W 009°08'0 0.0
2018-Aug-09 18:29N 38°43' W 009°08'0 0.0
2018-Aug-09 17:59N 38°43' W 009°08'0 0.0
2018-Aug-09 17:29N 38°43' W 009°08'0 0.0
2018-Aug-09 16:59N 38°43' W 009°08'0 0.0
2018-Aug-09 16:29N 38°43' W 009°08'0 0.0
2018-Aug-09 16:00N 38°43' W 009°08'0 0.0
2018-Aug-09 15:30N 38°43' W 009°08'0 0.0
2018-Aug-09 15:00N 38°43' W 009°08'0 0.0
2018-Aug-09 14:30N 38°43' W 009°08'0 0.0
2018-Aug-09 14:00N 38°43' W 009°08'0 0.0
2018-Aug-09 13:30N 38°43' W 009°08'0 0.0
2018-Aug-09 13:00N 38°43' W 009°08'0 0.0
2018-Aug-09 12:30N 38°43' W 009°08'0 0.0
2018-Aug-09 12:00N 38°43' W 009°08'0 0.0
2018-Aug-09 11:30N 38°43' W 009°08'0 0.0
2018-Aug-09 11:00N 38°43' W 009°08'0 0.0
2018-Aug-09 10:30N 38°43' W 009°08'0 0.0
2018-Aug-09 10:00N 38°43' W 009°08'0 0.0
2018-Aug-09 09:30N 38°43' W 009°08'0 0.0
2018-Aug-09 09:00N 38°43' W 009°08'0 0.5
2018-Aug-09 08:30N 38°42' W 009°08'5 9.4
2018-Aug-09 08:00N 38°41' W 009°13'612.9
2018-Aug-09 07:30N 38°38' W 009°21'815.1
2018-Aug-09 07:01N 38°32' W 009°25'816.9
2018-Aug-09 06:31N 38°23' W 009°25'917.3
2018-Aug-09 06:00N 38°14' W 009°25'917.4
2018-Aug-09 05:31N 38°06' W 009°24'816.8
2018-Aug-09 05:01N 37°57' W 009°24'816.5
2018-Aug-09 04:31N 37°49' W 009°23'816.7
2018-Aug-09 04:01N 37°41' W 009°23'816.9
2018-Aug-09 03:31N 37°32' W 009°23'917.5
2018-Aug-09 03:00N 37°23' W 009°22'4415.8
2018-Aug-09 00:11N 36°42' W 009°00'717.8
2018-Aug-08 23:48N 36°42' W 008°52'517.8
2018-Aug-08 23:30N 36°41' W 008°45'917.9
2018-Aug-08 23:00N 36°40' W 008°34'918.0
2018-Aug-08 22:30N 36°39' W 008°23'1427.3
2018-Aug-08 22:00N 36°36' W 008°06'5771.3 330 / 251017.110.8 20.016.920.0
2018-Aug-08 21:59N 36°38' W 008°12'817.5
2018-Aug-08 21:30N 36°39' W 008°01'5316.9
2018-Aug-08 18:21N 36°35' W 006°55'616.6
2018-Aug-08 17:58N 36°34' W 006°47'816.7
2018-Aug-08 17:30N 36°33' W 006°38'816.9
2018-Aug-08 17:00N 36°32' W 006°27'713.7
2018-Aug-08 16:30N 36°34' W 006°19'2 4.0
2018-Aug-08 16:00N 36°32' W 006°17'0 0.8
2018-Aug-08 15:29N 36°32' W 006°17'0 0.0
2018-Aug-08 14:59N 36°32' W 006°17'0 0.0
2018-Aug-08 14:29N 36°32' W 006°17'0 0.0
2018-Aug-08 13:56N 36°32' W 006°17'0 0.0
2018-Aug-08 13:29N 36°32' W 006°17'0 0.0
2018-Aug-08 12:59N 36°32' W 006°17'0 0.0
2018-Aug-08 12:29N 36°32' W 006°17'0 0.0
2018-Aug-08 11:39N 36°32' W 006°17'0 0.0
2018-Aug-08 11:27N 36°32' W 006°17'0 0.0
2018-Aug-08 06:18N 36°32' W 006°17'0 0.0
2018-Aug-08 06:00N 36°32' W 006°17'0 0.0
2018-Aug-08 05:06N 36°32' W 006°17'0 0.0
2018-Aug-08 05:00N 36°32' W 006°17'1 1.1
2018-Aug-08 04:19N 36°32' W 006°17'2 7.3
2018-Aug-08 04:00N 36°34' W 006°19'912.5
2018-Aug-08 03:15N 36°26' W 006°25'415.1
2018-Aug-08 03:00N 36°22' W 006°24'915.3
2018-Aug-08 02:26N 36°14' W 006°20'2214.2
2018-Aug-08 00:55N 36°01' W 005°59'614.6
2018-Aug-08 00:30N 35°59' W 005°52'813.5
2018-Aug-07 23:53N 35°58' W 005°42'513.4
2018-Aug-07 23:30N 35°58' W 005°35'713.9
2018-Aug-07 23:00N 35°60' W 005°27'713.6
2018-Aug-07 22:30N 36°01' W 005°19'713.5
2018-Aug-07 22:00N 36°03' W 005°11'713.0
2018-Aug-07 21:29N 36°04' W 005°02'612.7
2018-Aug-07 21:01N 36°08' W 004°57'713.6
2018-Aug-07 20:30N 36°14' W 004°52'172 8.9
2018-Aug-07 01:12N 36°57' W 001°24'518.2
2018-Aug-07 00:57N 37°00' W 001°20'917.9
2018-Aug-07 00:26N 37°06' W 001°11'817.9
2018-Aug-06 23:58N 37°12' W 001°04'918.0
2018-Aug-06 23:27N 37°18' W 000°55'818.3
2018-Aug-06 23:00N 37°24' W 000°48'918.4
2018-Aug-06 22:30N 37°30' W 000°39'918.2
2018-Aug-06 22:00N 37°37' W 000°32'918.1
2018-Aug-06 21:30N 37°44' W 000°25'917.9
2018-Aug-06 21:00N 37°51' W 000°18'917.9
2018-Aug-06 20:30N 37°59' W 000°12'917.8
2018-Aug-06 20:00N 38°07' W 000°06'917.9
2018-Aug-06 19:30N 38°14' W 000°00'917.9
2018-Aug-06 19:00N 38°22' E 000°06'917.7
2018-Aug-06 18:31N 38°29' E 000°12'917.5
2018-Aug-06 18:00N 38°37' E 000°18'817.0
2018-Aug-06 17:30N 38°44' E 000°23'816.4
2018-Aug-06 17:00N 38°52' E 000°19'2417.3
2018-Aug-06 15:37N 39°11' W 000°00'217.3
2018-Aug-06 15:30N 39°12' W 000°02'817.4
2018-Aug-06 15:00N 39°19' W 000°09'816.4
2018-Aug-06 14:30N 39°25' W 000°16'3 5.8
2018-Aug-06 14:01N 39°28' W 000°18'0 0.0
2018-Aug-06 13:29N 39°28' W 000°18'0 0.0
2018-Aug-06 12:59N 39°28' W 000°18'0 0.0
2018-Aug-06 12:29N 39°28' W 000°18'0 0.0
2018-Aug-06 11:59N 39°28' W 000°18'0 0.0
2018-Aug-06 11:29N 39°28' W 000°18'0 0.0
2018-Aug-06 10:59N 39°28' W 000°18'0 0.0
2018-Aug-06 10:29N 39°28' W 000°18'0 0.0
2018-Aug-06 09:59N 39°28' W 000°18'0 0.0
2018-Aug-06 09:29N 39°28' W 000°18'0 0.0
2018-Aug-06 08:59N 39°28' W 000°18'0 0.0
2018-Aug-06 08:31N 39°28' W 000°18'0 0.0
2018-Aug-06 07:59N 39°28' W 000°18'0 0.0
2018-Aug-06 07:29N 39°28' W 000°18'  

Dump ship's entire track history